Time;durP1;ratioP1;P1;durP2;ratioP2;P2;SDS_P1;SDS_P2;PMS_P1;PMS_P2;Temp;Humidity;BMP_temperature;BMP_pressure;BME280_temperature;BME280_humidity;BME280_pressure;Samples;Min_cycle;Max_cycle;Signal;HPM_P1;HPM_P2
2022/04/09 00:00:10;;;;;;;0.20;0.20;;;;;;;;;;5018306;28;20187;-77
2022/04/09 00:02:36;;;;;;;4.10;0.67;;;;;;;;;;5027154;28;20190;-77
2022/04/09 00:05:01;;;;;;;0.30;0.30;;;;;;;;;;5014633;28;20206;-77
2022/04/09 00:07:26;;;;;;;0.50;0.50;;;;;;;;;;5017965;28;20192;-77
2022/04/09 00:09:55;;;;;;;0.47;0.47;;;;;;;;;;5022780;28;20286;-77
2022/04/09 00:12:20;;;;;;;0.30;0.30;;;;;;;;;;5022962;28;20287;-77
2022/04/09 00:14:45;;;;;;;0.47;0.47;;;;;;;;;;5020934;28;20255;-77
2022/04/09 00:17:10;;;;;;;1.40;0.50;;;;;;;;;;5020557;28;20243;-77
2022/04/09 00:19:38;;;;;;;0.40;0.40;;;;;;;;;;5021390;28;20210;-77
2022/04/09 00:22:04;;;;;;;0.23;0.23;;;;;;;;;;5017619;28;20473;-77
2022/04/09 00:24:29;;;;;;;0.20;0.20;;;;;;;;;;5020883;28;20178;-77
2022/04/09 00:26:54;;;;;;;0.50;0.50;;;;;;;;;;5022963;28;20194;-77
2022/04/09 00:29:19;;;;;;;0.20;0.20;;;;;;;;;;5008981;28;20207;-77
2022/04/09 00:31:44;;;;;;;0.60;0.60;;;;;;;;;;5020901;28;20230;-77
2022/04/09 00:34:09;;;;;;;0.40;0.40;;;;;;;;;;5017775;28;20186;-77
2022/04/09 00:36:35;;;;;;;0.23;0.23;;;;;;;;;;5014383;28;20186;-76
2022/04/09 00:39:00;;;;;;;0.60;0.60;;;;;;;;;;5013080;28;20179;-76
2022/04/09 00:41:25;;;;;;;0.20;0.20;;;;;;;;;;5020406;28;20175;-77
2022/04/09 00:43:50;;;;;;;0.47;0.47;;;;;;;;;;5016546;28;20171;-77
2022/04/09 00:46:16;;;;;;;0.20;0.20;;;;;;;;;;5022963;28;20181;-77
2022/04/09 00:48:42;;;;;;;0.70;0.70;;;;;;;;;;5018018;28;20178;-77
2022/04/09 00:51:07;;;;;;;0.57;0.57;;;;;;;;;;5016874;28;20220;-77
2022/04/09 00:53:36;;;;;;;0.40;0.40;;;;;;;;;;5018484;28;20182;-77
2022/04/09 00:56:20;;;;;;;0.40;0.40;;;;;;;;;;5016346;28;20299;-77
2022/04/09 00:58:50;;;;;;;0.37;0.37;;;;;;;;;;5018350;28;20213;-77
2022/04/09 01:01:16;;;;;;;0.20;0.20;;;;;;;;;;5019625;28;20175;-77
2022/04/09 01:03:42;;;;;;;0.53;0.53;;;;;;;;;;5018554;28;20181;-77
2022/04/09 01:06:08;;;;;;;0.37;0.37;;;;;;;;;;5024876;28;20182;-77
2022/04/09 01:08:33;;;;;;;0.60;0.60;;;;;;;;;;5014015;28;20182;-77
2022/04/09 01:10:58;;;;;;;0.50;0.50;;;;;;;;;;5013759;28;20210;-77
2022/04/09 01:13:24;;;;;;;0.80;0.80;;;;;;;;;;5025262;28;20199;-77
2022/04/09 01:15:49;;;;;;;0.53;0.53;;;;;;;;;;5010085;28;20263;-77
2022/04/09 01:18:15;;;;;;;1.50;1.40;;;;;;;;;;5013881;28;20235;-77
2022/04/09 01:20:40;;;;;;;1.30;0.80;;;;;;;;;;5018909;28;20254;-77
2022/04/09 01:23:06;;;;;;;0.83;0.80;;;;;;;;;;5019928;28;20175;-77
2022/04/09 01:25:31;;;;;;;1.40;1.10;;;;;;;;;;5017440;28;20175;-77
2022/04/09 01:27:56;;;;;;;2.23;1.37;;;;;;;;;;5020984;28;20182;-77
2022/04/09 01:30:22;;;;;;;1.33;1.23;;;;;;;;;;5025979;28;20211;-77
2022/04/09 01:32:47;;;;;;;0.70;0.70;;;;;;;;;;5019197;28;20225;-77
2022/04/09 01:35:12;;;;;;;1.60;1.10;;;;;;;;;;5013230;28;20183;-77
2022/04/09 01:37:37;;;;;;;1.67;1.57;;;;;;;;;;5013552;28;20191;-77
2022/04/09 01:40:03;;;;;;;1.40;1.27;;;;;;;;;;5012241;28;20202;-77
2022/04/09 01:42:28;;;;;;;1.53;1.43;;;;;;;;;;5019972;28;20242;-77
2022/04/09 01:44:53;;;;;;;1.43;1.33;;;;;;;;;;5018402;28;20230;-77
2022/04/09 01:47:19;;;;;;;2.33;1.90;;;;;;;;;;5013588;28;20219;-77
2022/04/09 01:49:44;;;;;;;1.80;1.70;;;;;;;;;;5014191;28;20194;-77
2022/04/09 01:52:09;;;;;;;1.53;1.43;;;;;;;;;;5021937;28;20183;-77
2022/04/09 01:54:34;;;;;;;2.63;2.00;;;;;;;;;;5017950;28;20179;-77
2022/04/09 01:56:59;;;;;;;1.57;1.33;;;;;;;;;;5021062;28;20206;-77
2022/04/09 01:59:24;;;;;;;1.70;1.60;;;;;;;;;;5020201;28;20171;-77
2022/04/09 02:01:50;;;;;;;1.83;1.70;;;;;;;;;;5023181;28;20185;-77
2022/04/09 02:04:15;;;;;;;1.23;1.13;;;;;;;;;;5022276;28;20197;-77
2022/04/09 02:06:42;;;;;;;1.53;1.43;;;;;;;;;;5017731;28;20167;-77
2022/04/09 02:09:07;;;;;;;1.33;1.23;;;;;;;;;;5012746;28;20175;-77
2022/04/09 02:11:32;;;;;;;1.80;1.50;;;;;;;;;;5014687;28;20182;-77
2022/04/09 02:13:58;;;;;;;1.43;1.33;;;;;;;;;;5019951;28;20201;-77
2022/04/09 02:16:23;;;;;;;1.57;1.47;;;;;;;;;;5024463;28;20209;-77
2022/04/09 02:18:48;;;;;;;2.57;1.50;;;;;;;;;;5016122;28;20238;-77
2022/04/09 02:21:13;;;;;;;2.93;1.80;;;;;;;;;;5027259;28;20170;-77
2022/04/09 02:23:38;;;;;;;1.50;1.40;;;;;;;;;;5026649;28;20172;-77
2022/04/09 02:26:04;;;;;;;1.57;1.23;;;;;;;;;;5026526;28;20333;-77
2022/04/09 02:28:31;;;;;;;1.30;1.20;;;;;;;;;;5020311;28;20471;-77
2022/04/09 02:30:56;;;;;;;1.67;1.57;;;;;;;;;;5021020;28;20258;-77
2022/04/09 02:33:22;;;;;;;1.97;1.83;;;;;;;;;;5035100;28;20333;-76
2022/04/09 02:35:47;;;;;;;1.63;1.53;;;;;;;;;;5020895;28;20166;-76
2022/04/09 02:38:12;;;;;;;3.10;1.70;;;;;;;;;;5020267;28;20278;-76
2022/04/09 02:40:37;;;;;;;2.40;2.20;;;;;;;;;;5016588;28;20276;-77
2022/04/09 02:43:03;;;;;;;2.47;2.00;;;;;;;;;;5021073;28;20178;-77
2022/04/09 02:45:28;;;;;;;1.70;1.60;;;;;;;;;;5025383;28;20179;-77
2022/04/09 02:47:53;;;;;;;6.87;2.50;;;;;;;;;;5023460;28;20177;-77
2022/04/09 02:50:19;;;;;;;3.43;2.73;;;;;;;;;;5021531;28;20183;-77
2022/04/09 02:52:45;;;;;;;2.80;2.47;;;;;;;;;;5027225;28;20198;-77
2022/04/09 02:55:10;;;;;;;5.50;3.53;;;;;;;;;;5023723;28;20213;-77
2022/04/09 02:57:37;;;;;;;4.30;2.60;;;;;;;;;;5024460;28;20195;-77
2022/04/09 03:00:05;;;;;;;3.73;2.93;;;;;;;;;;5015483;28;20190;-77
2022/04/09 03:02:30;;;;;;;4.10;3.43;;;;;;;;;;5018207;28;20215;-76
2022/04/09 03:04:56;;;;;;;4.53;3.23;;;;;;;;;;5021558;28;20227;-76
2022/04/09 03:07:22;;;;;;;3.87;3.30;;;;;;;;;;5019630;28;20179;-76
2022/04/09 03:09:47;;;;;;;7.03;4.83;;;;;;;;;;5025610;28;20233;-76
2022/04/09 03:12:12;;;;;;;4.70;4.03;;;;;;;;;;5028955;28;20244;-76
2022/04/09 03:14:37;;;;;;;6.20;4.97;;;;;;;;;;5017805;28;20194;-76
2022/04/09 03:17:02;;;;;;;7.00;5.50;;;;;;;;;;5013279;28;20227;-76
2022/04/09 03:19:28;;;;;;;8.07;6.00;;;;;;;;;;5024068;28;20178;-77
2022/04/09 03:21:53;;;;;;;9.27;6.83;;;;;;;;;;5024571;28;20179;-76
2022/04/09 03:24:18;;;;;;;7.27;4.63;;;;;;;;;;5024738;28;20202;-76
2022/04/09 03:26:44;;;;;;;7.13;5.67;;;;;;;;;;5017888;28;20175;-76
2022/04/09 03:29:09;;;;;;;9.30;7.23;;;;;;;;;;5023296;28;20178;-76
2022/04/09 03:31:35;;;;;;;7.60;6.30;;;;;;;;;;5021142;28;20371;-76
2022/04/09 03:34:02;;;;;;;9.73;7.87;;;;;;;;;;5019729;28;20191;-76
2022/04/09 03:36:27;;;;;;;10.57;8.83;;;;;;;;;;5025643;28;20265;-76
2022/04/09 03:38:52;;;;;;;12.40;7.07;;;;;;;;;;5021226;28;20285;-76
2022/04/09 03:41:17;;;;;;;11.53;7.83;;;;;;;;;;5017303;28;20179;-76
2022/04/09 03:43:43;;;;;;;13.43;10.20;;;;;;;;;;5028124;28;20318;-76
2022/04/09 03:46:08;;;;;;;11.33;8.47;;;;;;;;;;5024858;28;20335;-76
2022/04/09 03:48:33;;;;;;;10.47;7.30;;;;;;;;;;5021367;28;20182;-76
2022/04/09 03:50:58;;;;;;;9.87;7.77;;;;;;;;;;5018693;28;20175;-76
2022/04/09 03:53:23;;;;;;;8.30;6.30;;;;;;;;;;5023805;28;20200;-76
2022/04/09 03:55:49;;;;;;;11.00;8.50;;;;;;;;;;5023747;28;20186;-76
2022/04/09 03:58:19;;;;;;;10.03;8.40;;;;;;;;;;5024496;28;20290;-76
2022/04/09 04:00:45;;;;;;;10.60;7.10;;;;;;;;;;5020380;28;20783;-77
2022/04/09 04:03:10;;;;;;;6.90;5.60;;;;;;;;;;5030259;28;20297;-77
2022/04/09 04:05:36;;;;;;;11.97;8.10;;;;;;;;;;5018122;28;20203;-77
2022/04/09 04:08:02;;;;;;;7.90;6.60;;;;;;;;;;5022137;28;20174;-76
2022/04/09 04:10:27;;;;;;;8.50;7.60;;;;;;;;;;5022214;28;20194;-76
2022/04/09 04:12:52;;;;;;;6.60;5.63;;;;;;;;;;5019886;28;20180;-76
2022/04/09 04:15:18;;;;;;;8.07;7.27;;;;;;;;;;5021310;28;20191;-76
2022/04/09 04:17:43;;;;;;;9.40;8.20;;;;;;;;;;5019503;28;20237;-77
2022/04/09 04:20:09;;;;;;;11.13;7.17;;;;;;;;;;5021229;28;20258;-77
2022/04/09 04:22:35;;;;;;;11.63;8.57;;;;;;;;;;5020514;28;20179;-77
2022/04/09 04:25:00;;;;;;;10.50;7.97;;;;;;;;;;5020902;28;20175;-77
2022/04/09 04:27:26;;;;;;;10.03;7.83;;;;;;;;;;5018595;28;20190;-76
2022/04/09 04:29:51;;;;;;;8.30;7.37;;;;;;;;;;5024802;28;20171;-77
2022/04/09 04:32:16;;;;;;;10.13;8.27;;;;;;;;;;5022269;28;20188;-77
2022/04/09 04:34:41;;;;;;;10.13;7.80;;;;;;;;;;5021986;28;20244;-77
2022/04/09 04:37:06;;;;;;;10.77;8.47;;;;;;;;;;5024029;28;20818;-77
2022/04/09 04:39:32;;;;;;;8.03;7.03;;;;;;;;;;5022555;28;20228;-77
2022/04/09 04:41:57;;;;;;;10.60;8.43;;;;;;;;;;5025995;28;20228;-77
2022/04/09 04:44:22;;;;;;;9.60;7.90;;;;;;;;;;5024201;28;20202;-77
2022/04/09 04:46:47;;;;;;;9.75;6.93;;;;;;;;;;5025331;28;20174;-77
2022/04/09 04:49:12;;;;;;;11.77;9.30;;;;;;;;;;5009747;28;20175;-77
2022/04/09 04:51:37;;;;;;;13.00;8.80;;;;;;;;;;5027720;28;20162;-77
2022/04/09 04:54:03;;;;;;;9.70;8.07;;;;;;;;;;5017161;28;20187;-77
2022/04/09 04:56:28;;;;;;;8.93;6.23;;;;;;;;;;5020107;28;20162;-77
2022/04/09 04:58:54;;;;;;;10.53;8.80;;;;;;;;;;5025263;28;20202;-77
2022/04/09 05:01:19;;;;;;;9.87;8.23;;;;;;;;;;5014763;28;20303;-76
2022/04/09 05:03:45;;;;;;;8.40;7.27;;;;;;;;;;5014273;28;20200;-76
2022/04/09 05:06:10;;;;;;;11.23;8.07;;;;;;;;;;5014617;28;20183;-77
2022/04/09 05:08:35;;;;;;;8.30;7.43;;;;;;;;;;5019252;28;20281;-77
2022/04/09 05:11:00;;;;;;;10.20;8.13;;;;;;;;;;5017476;28;20279;-77
2022/04/09 05:13:25;;;;;;;11.50;8.93;;;;;;;;;;5015578;28;20186;-77
2022/04/09 05:15:51;;;;;;;11.50;9.30;;;;;;;;;;5009831;28;20178;-77
2022/04/09 05:18:16;;;;;;;9.60;7.93;;;;;;;;;;5032106;28;20258;-77
2022/04/09 05:20:41;;;;;;;10.93;7.50;;;;;;;;;;5019537;28;20179;-77
2022/04/09 05:23:06;;;;;;;9.27;7.67;;;;;;;;;;5027017;28;20198;-77
2022/04/09 05:25:32;;;;;;;9.40;7.93;;;;;;;;;;5012857;28;20180;-77
2022/04/09 05:28:01;;;;;;;9.57;8.43;;;;;;;;;;5022056;28;20179;-78
2022/04/09 05:30:27;;;;;;;9.40;8.50;;;;;;;;;;5015858;28;20266;-77
2022/04/09 05:32:53;;;;;;;14.33;8.37;;;;;;;;;;5021044;28;20393;-77
2022/04/09 05:35:18;;;;;;;14.10;10.40;;;;;;;;;;5014649;28;20183;-77
2022/04/09 05:37:45;;;;;;;15.97;9.57;;;;;;;;;;5024806;28;20207;-77
2022/04/09 05:40:10;;;;;;;11.03;8.67;;;;;;;;;;5014601;28;20186;-77
2022/04/09 05:42:35;;;;;;;10.80;9.33;;;;;;;;;;5017551;28;20178;-77
2022/04/09 05:45:01;;;;;;;12.67;8.13;;;;;;;;;;5016458;28;20211;-77
2022/04/09 05:47:27;;;;;;;12.17;9.60;;;;;;;;;;5026033;28;20192;-77
2022/04/09 05:49:53;;;;;;;14.60;9.23;;;;;;;;;;5009729;28;20176;-77
2022/04/09 05:52:18;;;;;;;11.00;9.90;;;;;;;;;;5025088;28;20191;-77
2022/04/09 05:54:43;;;;;;;12.00;9.40;;;;;;;;;;5015118;28;20186;-76
2022/04/09 05:57:08;;;;;;;12.43;10.37;;;;;;;;;;5019007;28;20211;-77
2022/04/09 05:59:33;;;;;;;13.27;10.10;;;;;;;;;;5014161;28;20206;-77
2022/04/09 06:01:59;;;;;;;9.43;8.33;;;;;;;;;;5015122;28;20202;-77
2022/04/09 06:04:24;;;;;;;12.17;9.03;;;;;;;;;;5010903;28;20201;-76
2022/04/09 06:06:49;;;;;;;12.90;9.13;;;;;;;;;;5016900;28;20175;-77
2022/04/09 06:09:15;;;;;;;9.07;7.80;;;;;;;;;;5022770;28;20185;-77
2022/04/09 06:11:41;;;;;;;12.33;9.00;;;;;;;;;;5024338;28;20232;-76
2022/04/09 06:14:07;;;;;;;9.97;8.73;;;;;;;;;;5021820;28;20175;-77
2022/04/09 06:16:34;;;;;;;8.43;6.63;;;;;;;;;;5019096;28;20253;-77
2022/04/09 06:18:59;;;;;;;11.47;8.50;;;;;;;;;;5015634;28;20231;-76
2022/04/09 06:21:27;;;;;;;6.50;5.27;;;;;;;;;;5022505;28;20179;-76
2022/04/09 06:23:52;;;;;;;11.93;8.07;;;;;;;;;;5021416;28;20272;-76
2022/04/09 06:26:17;;;;;;;12.95;8.75;;;;;;;;;;5011458;28;20183;-76
2022/04/09 06:28:42;;;;;;;10.77;9.70;;;;;;;;;;5031086;28;20193;-77
2022/04/09 06:31:07;;;;;;;8.77;7.30;;;;;;;;;;5013443;28;20184;-76
2022/04/09 06:33:33;;;;;;;13.93;9.23;;;;;;;;;;5025228;28;20182;-77
2022/04/09 06:35:58;;;;;;;14.50;8.40;;;;;;;;;;5014072;28;20270;-77
2022/04/09 06:38:26;;;;;;;9.87;8.10;;;;;;;;;;5017319;28;20213;-77
2022/04/09 06:40:51;;;;;;;13.03;9.57;;;;;;;;;;5017752;28;20182;-76
2022/04/09 06:43:16;;;;;;;12.50;10.17;;;;;;;;;;5018809;28;20172;-77
2022/04/09 06:45:41;;;;;;;17.20;12.37;;;;;;;;;;5020348;28;20241;-77
2022/04/09 06:48:07;;;;;;;17.97;10.50;;;;;;;;;;5013715;28;20176;-77
2022/04/09 06:50:32;;;;;;;16.90;11.97;;;;;;;;;;5017320;28;20190;-77
2022/04/09 06:52:57;;;;;;;20.47;10.47;;;;;;;;;;5014455;28;20259;-77
2022/04/09 06:55:22;;;;;;;13.67;10.50;;;;;;;;;;5021124;28;20915;-77
2022/04/09 06:57:48;;;;;;;12.90;10.37;;;;;;;;;;5016528;28;20202;-77
2022/04/09 07:00:14;;;;;;;13.67;10.43;;;;;;;;;;5012217;28;20171;-77
2022/04/09 07:02:39;;;;;;;11.17;9.17;;;;;;;;;;5025334;28;20202;-77
2022/04/09 07:05:05;;;;;;;10.87;9.20;;;;;;;;;;5010110;28;20195;-77
2022/04/09 07:07:30;;;;;;;15.73;10.27;;;;;;;;;;5023709;28;20179;-77
2022/04/09 07:10:02;;;;;;;14.83;9.90;;;;;;;;;;5029156;28;20232;-77
2022/04/09 07:12:28;;;;;;;13.43;9.20;;;;;;;;;;5023048;28;20183;-77
2022/04/09 07:14:53;;;;;;;11.13;9.03;;;;;;;;;;5015945;28;20171;-76
2022/04/09 07:17:19;;;;;;;8.70;7.03;;;;;;;;;;5017485;28;20314;-77
2022/04/09 07:19:44;;;;;;;11.73;7.40;;;;;;;;;;5020308;28;20178;-77
2022/04/09 07:22:09;;;;;;;11.70;7.30;;;;;;;;;;5020998;28;20182;-77
2022/04/09 07:24:35;;;;;;;11.27;7.83;;;;;;;;;;5027269;28;20261;-77
2022/04/09 07:27:01;;;;;;;11.00;7.73;;;;;;;;;;5020150;28;20268;-77
2022/04/09 07:29:26;;;;;;;11.33;8.07;;;;;;;;;;5015083;28;20193;-77
2022/04/09 07:31:51;;;;;;;7.67;6.77;;;;;;;;;;5019803;28;20225;-77
2022/04/09 07:34:16;;;;;;;11.50;7.60;;;;;;;;;;5018955;28;20214;-77
2022/04/09 07:36:41;;;;;;;11.87;8.37;;;;;;;;;;5024344;28;20581;-77
2022/04/09 07:39:07;;;;;;;12.00;7.57;;;;;;;;;;5018800;28;20227;-77
2022/04/09 07:41:32;;;;;;;11.03;7.87;;;;;;;;;;5016833;28;20171;-77
2022/04/09 07:43:57;;;;;;;7.60;5.97;;;;;;;;;;5019842;28;20171;-77
2022/04/09 07:46:22;;;;;;;8.27;7.47;;;;;;;;;;5013770;28;20172;-77
2022/04/09 07:48:47;;;;;;;12.10;7.20;;;;;;;;;;5022946;28;20204;-77
2022/04/09 07:51:13;;;;;;;9.93;6.00;;;;;;;;;;5021283;28;20192;-77
2022/04/09 07:53:38;;;;;;;7.03;6.33;;;;;;;;;;5016698;28;20184;-77
2022/04/09 07:56:03;;;;;;;11.57;8.13;;;;;;;;;;5017384;28;20183;-77
2022/04/09 07:58:28;;;;;;;7.90;5.30;;;;;;;;;;5017565;28;20287;-77
2022/04/09 08:00:54;;;;;;;8.13;5.93;;;;;;;;;;5019119;28;20186;-77
2022/04/09 08:03:19;;;;;;;11.03;7.80;;;;;;;;;;5016710;28;20186;-77
2022/04/09 08:05:44;;;;;;;8.07;6.77;;;;;;;;;;5015306;28;20195;-76
2022/04/09 08:08:09;;;;;;;10.93;6.80;;;;;;;;;;5012693;28;20194;-76
2022/04/09 08:10:35;;;;;;;9.83;8.17;;;;;;;;;;5023614;28;20179;-76
2022/04/09 08:13:00;;;;;;;10.33;7.63;;;;;;;;;;5024952;28;20183;-76
2022/04/09 08:15:25;;;;;;;10.23;8.30;;;;;;;;;;5022577;28;20189;-76
2022/04/09 08:17:54;;;;;;;7.70;6.77;;;;;;;;;;5016343;28;20223;-76
2022/04/09 08:20:20;;;;;;;10.73;7.77;;;;;;;;;;5022474;28;20285;-76
2022/04/09 08:22:45;;;;;;;12.37;7.63;;;;;;;;;;5015289;28;20180;-77
2022/04/09 08:25:10;;;;;;;9.73;6.20;;;;;;;;;;5014869;28;20193;-77
2022/04/09 08:27:36;;;;;;;18.03;11.97;;;;;;;;;;5016274;28;20191;-76
2022/04/09 08:30:02;;;;;;;16.80;11.73;;;;;;;;;;5016698;28;20182;-76
2022/04/09 08:32:29;;;;;;;9.50;8.10;;;;;;;;;;5021072;28;20495;-76
2022/04/09 08:34:54;;;;;;;10.87;8.03;;;;;;;;;;5016853;28;20179;-76
2022/04/09 08:37:21;;;;;;;15.60;12.03;;;;;;;;;;5022379;28;20201;-76
2022/04/09 08:39:47;;;;;;;8.97;6.63;;;;;;;;;;5022916;28;20332;-76
2022/04/09 08:42:14;;;;;;;12.23;8.17;;;;;;;;;;5019566;28;20201;-76
2022/04/09 08:44:39;;;;;;;12.13;8.00;;;;;;;;;;5023546;28;20467;-77
2022/04/09 08:47:04;;;;;;;9.57;7.17;;;;;;;;;;5012996;28;20180;-76
2022/04/09 08:49:31;;;;;;;13.57;6.50;;;;;;;;;;5034126;28;20236;-76
2022/04/09 08:51:56;;;;;;;7.73;6.70;;;;;;;;;;5019873;28;20198;-77
2022/04/09 08:54:22;;;;;;;9.40;7.07;;;;;;;;;;5024417;28;20207;-77
2022/04/09 08:56:49;;;;;;;8.00;6.30;;;;;;;;;;5017132;28;20184;-76
2022/04/09 08:59:15;;;;;;;7.80;6.20;;;;;;;;;;5019266;28;20261;-76
2022/04/09 09:01:40;;;;;;;7.10;5.70;;;;;;;;;;5022736;28;20201;-77
2022/04/09 09:04:05;;;;;;;10.90;7.90;;;;;;;;;;5025776;28;20197;-77
2022/04/09 09:06:32;;;;;;;11.80;7.47;;;;;;;;;;5017090;28;20295;-77
2022/04/09 09:08:58;;;;;;;11.50;7.40;;;;;;;;;;5010328;28;20187;-77
2022/04/09 09:11:24;;;;;;;8.60;6.90;;;;;;;;;;5018334;28;20191;-76
2022/04/09 09:14:07;;;;;;;10.03;7.13;;;;;;;;;;5017657;28;20187;-77
2022/04/09 09:16:32;;;;;;;12.63;8.37;;;;;;;;;;5019008;28;20182;-76
2022/04/09 09:19:09;;;;;;;10.77;7.17;;;;;;;;;;5020402;28;20223;-77
2022/04/09 09:21:34;;;;;;;8.37;7.47;;;;;;;;;;5008788;28;20201;-77
2022/04/09 09:24:13;;;;;;;8.27;6.70;;;;;;;;;;5016005;28;20207;-77
2022/04/09 09:26:38;;;;;;;8.30;7.37;;;;;;;;;;5007582;28;20199;-76
2022/04/09 09:29:04;;;;;;;9.33;6.97;;;;;;;;;;5013440;28;20203;-76
2022/04/09 09:31:39;;;;;;;11.27;6.47;;;;;;;;;;5015144;28;20182;-76
2022/04/09 09:34:08;;;;;;;9.37;6.47;;;;;;;;;;5017573;28;20269;-76
2022/04/09 09:36:33;;;;;;;8.70;5.77;;;;;;;;;;5023531;28;20273;-77
2022/04/09 09:39:02;;;;;;;6.40;5.17;;;;;;;;;;5020671;28;20305;-76
2022/04/09 09:41:27;;;;;;;8.40;6.43;;;;;;;;;;5016802;28;20233;-76
2022/04/09 09:44:00;;;;;;;12.47;7.30;;;;;;;;;;5021275;28;20190;-77
2022/04/09 09:46:25;;;;;;;8.33;5.50;;;;;;;;;;5011915;28;20182;-76
2022/04/09 09:48:50;;;;;;;11.70;7.07;;;;;;;;;;5017282;28;20182;-77
2022/04/09 09:51:21;;;;;;;9.50;7.30;;;;;;;;;;5012067;28;20214;-77
2022/04/09 09:53:46;;;;;;;8.97;6.10;;;;;;;;;;5014472;28;20190;-77
2022/04/09 09:56:12;;;;;;;13.43;7.40;;;;;;;;;;5017838;28;20186;-76
2022/04/09 09:58:38;;;;;;;8.70;5.77;;;;;;;;;;5019595;28;20301;-77
2022/04/09 10:01:04;;;;;;;16.60;6.87;;;;;;;;;;5015723;28;20206;-77
2022/04/09 10:03:29;;;;;;;10.17;6.43;;;;;;;;;;5022689;28;20179;-77
2022/04/09 10:05:54;;;;;;;10.53;8.00;;;;;;;;;;5014035;28;20202;-77
2022/04/09 10:08:20;;;;;;;11.00;8.23;;;;;;;;;;5019498;28;20270;-77
2022/04/09 10:10:48;;;;;;;10.37;6.70;;;;;;;;;;5014952;28;20178;-77
2022/04/09 10:13:24;;;;;;;9.27;5.93;;;;;;;;;;5014011;28;20476;-76
2022/04/09 10:15:51;;;;;;;11.70;6.40;;;;;;;;;;5023386;28;20178;-77
2022/04/09 10:18:19;;;;;;;11.13;6.93;;;;;;;;;;5020161;28;20231;-77
2022/04/09 10:20:45;;;;;;;8.37;6.23;;;;;;;;;;5019930;28;20175;-77
2022/04/09 10:23:11;;;;;;;6.90;5.87;;;;;;;;;;5015426;28;20179;-77
2022/04/09 10:25:40;;;;;;;10.13;6.23;;;;;;;;;;5013573;28;20175;-77
2022/04/09 10:28:07;;;;;;;5.93;4.70;;;;;;;;;;5017740;28;20179;-77
2022/04/09 10:30:38;;;;;;;10.13;6.53;;;;;;;;;;5014208;28;20178;-77
2022/04/09 10:33:19;;;;;;;9.47;6.63;;;;;;;;;;5023185;28;20207;-77
2022/04/09 10:35:45;;;;;;;10.00;6.50;;;;;;;;;;5015599;28;20179;-77
2022/04/09 10:38:10;;;;;;;10.50;5.97;;;;;;;;;;5019770;28;20416;-77
2022/04/09 10:40:36;;;;;;;7.87;6.40;;;;;;;;;;5021713;28;20163;-77
2022/04/09 10:43:03;;;;;;;8.27;6.07;;;;;;;;;;5016398;28;20175;-76
2022/04/09 10:45:29;;;;;;;10.53;6.97;;;;;;;;;;5023479;28;20217;-77
2022/04/09 10:48:05;;;;;;;9.60;6.70;;;;;;;;;;5023817;28;20256;-77
2022/04/09 10:50:49;;;;;;;11.13;6.43;;;;;;;;;;5021708;28;20185;-77
2022/04/09 10:53:16;;;;;;;10.37;6.50;;;;;;;;;;5025472;28;20209;-77
2022/04/09 10:55:41;;;;;;;7.10;4.77;;;;;;;;;;5021985;28;20231;-77
2022/04/09 10:58:10;;;;;;;8.23;4.90;;;;;;;;;;5025250;28;20210;-77
2022/04/09 11:00:37;;;;;;;6.60;5.03;;;;;;;;;;5022946;28;20167;-77
2022/04/09 11:03:11;;;;;;;8.63;4.40;;;;;;;;;;5022848;28;20184;-77
2022/04/09 11:05:41;;;;;;;7.03;4.80;;;;;;;;;;5016231;28;20195;-77
2022/04/09 11:08:07;;;;;;;7.77;5.17;;;;;;;;;;5020545;28;20189;-77
2022/04/09 11:10:32;;;;;;;7.90;5.30;;;;;;;;;;5027869;28;20228;-77
2022/04/09 11:12:57;;;;;;;6.57;4.90;;;;;;;;;;5021796;28;20183;-78
2022/04/09 11:15:22;;;;;;;10.07;5.20;;;;;;;;;;5015917;28;20194;-77
2022/04/09 11:17:48;;;;;;;5.90;3.73;;;;;;;;;;5025954;28;20227;-77
2022/04/09 11:20:16;;;;;;;8.27;5.27;;;;;;;;;;5025102;28;20290;-77
2022/04/09 11:22:43;;;;;;;7.23;4.70;;;;;;;;;;5025148;28;20183;-77
2022/04/09 11:25:28;;;;;;;6.47;3.93;;;;;;;;;;5020704;28;20239;-76
2022/04/09 11:28:07;;;;;;;7.77;4.17;;;;;;;;;;5017784;28;20187;-77
2022/04/09 11:30:35;;;;;;;7.20;4.70;;;;;;;;;;5019113;28;20175;-77
2022/04/09 11:33:00;;;;;;;6.20;4.67;;;;;;;;;;5024164;28;20267;-77
2022/04/09 11:35:25;;;;;;;6.33;4.80;;;;;;;;;;5014293;28;20258;-77
2022/04/09 11:37:51;;;;;;;7.37;4.80;;;;;;;;;;5028730;28;20263;-78
2022/04/09 11:40:18;;;;;;;6.50;4.57;;;;;;;;;;5022381;28;20205;-78
2022/04/09 11:42:49;;;;;;;6.83;4.83;;;;;;;;;;5027090;28;20187;-75
2022/04/09 11:45:28;;;;;;;8.23;4.57;;;;;;;;;;5026521;28;20202;-75
2022/04/09 11:47:55;;;;;;;7.73;4.13;;;;;;;;;;5022214;28;20179;-75
2022/04/09 11:50:20;;;;;;;9.23;5.07;;;;;;;;;;5019907;28;20269;-75
2022/04/09 11:52:46;;;;;;;7.17;4.17;;;;;;;;;;5020382;28;20333;-75
2022/04/09 11:55:12;;;;;;;6.70;3.30;;;;;;;;;;5019216;28;20191;-75
2022/04/09 11:57:38;;;;;;;7.00;4.20;;;;;;;;;;5019233;28;20199;-75
2022/04/09 12:00:04;;;;;;;5.30;4.40;;;;;;;;;;5015329;28;20179;-75
2022/04/09 12:02:30;;;;;;;6.60;3.63;;;;;;;;;;5026247;28;20175;-75
2022/04/09 12:04:55;;;;;;;7.67;4.83;;;;;;;;;;5025450;28;20608;-74
2022/04/09 12:07:21;;;;;;;9.73;4.50;;;;;;;;;;5012065;28;22235;-75
2022/04/09 12:09:47;;;;;;;5.93;4.00;;;;;;;;;;5023673;28;20174;-75
2022/04/09 12:12:12;;;;;;;12.07;5.37;;;;;;;;;;5022108;28;20210;-75
2022/04/09 12:14:39;;;;;;;6.13;3.60;;;;;;;;;;5024011;28;20182;-75
2022/04/09 12:17:09;;;;;;;9.03;4.27;;;;;;;;;;5026158;28;20232;-75
2022/04/09 12:19:35;;;;;;;6.43;4.70;;;;;;;;;;5021045;28;20210;-75
2022/04/09 12:22:12;;;;;;;5.53;3.63;;;;;;;;;;5022203;28;20222;-75
2022/04/09 12:24:47;;;;;;;7.67;3.83;;;;;;;;;;5015848;28;20180;-75
2022/04/09 12:27:13;;;;;;;7.47;4.10;;;;;;;;;;5017996;28;20229;-75
2022/04/09 12:29:46;;;;;;;6.57;3.77;;;;;;;;;;5025751;28;20219;-75
2022/04/09 12:32:29;;;;;;;7.53;3.90;;;;;;;;;;5017280;28;20255;-75
2022/04/09 12:34:55;;;;;;;6.70;3.77;;;;;;;;;;5025179;28;20264;-75
2022/04/09 12:37:20;;;;;;;5.20;3.43;;;;;;;;;;5023753;28;20267;-75
2022/04/09 12:39:45;;;;;;;4.40;3.03;;;;;;;;;;5022015;28;20174;-75
2022/04/09 12:42:10;;;;;;;5.30;3.60;;;;;;;;;;5020336;28;20230;-75
2022/04/09 12:44:36;;;;;;;8.00;3.80;;;;;;;;;;5024080;28;20223;-75
2022/04/09 12:47:02;;;;;;;5.77;3.87;;;;;;;;;;5018455;28;20230;-75
2022/04/09 12:49:32;;;;;;;8.73;3.30;;;;;;;;;;5017435;28;20175;-75
2022/04/09 12:51:58;;;;;;;7.23;3.40;;;;;;;;;;5018215;28;20189;-74
2022/04/09 12:54:23;;;;;;;8.37;4.17;;;;;;;;;;5024132;28;20186;-74
2022/04/09 12:56:48;;;;;;;4.83;3.07;;;;;;;;;;5014196;28;20186;-74
2022/04/09 12:59:13;;;;;;;6.40;3.57;;;;;;;;;;5013592;28;20204;-74
2022/04/09 13:01:39;;;;;;;4.83;3.13;;;;;;;;;;5014974;28;20206;-74
2022/04/09 13:04:04;;;;;;;3.30;2.97;;;;;;;;;;5013079;28;20208;-74
2022/04/09 13:06:29;;;;;;;4.80;3.20;;;;;;;;;;5017682;28;20263;-74
2022/04/09 13:08:55;;;;;;;6.37;2.80;;;;;;;;;;5013861;28;20247;-74
2022/04/09 13:11:20;;;;;;;5.97;3.33;;;;;;;;;;5017884;28;20221;-74
2022/04/09 13:13:45;;;;;;;5.97;2.93;;;;;;;;;;5025240;28;20220;-75
2022/04/09 13:16:11;;;;;;;4.77;2.93;;;;;;;;;;5020619;28;20185;-75
2022/04/09 13:18:36;;;;;;;4.80;2.50;;;;;;;;;;5019522;28;20252;-74
2022/04/09 13:21:01;;;;;;;5.10;3.20;;;;;;;;;;5018845;28;20537;-75
2022/04/09 13:23:26;;;;;;;6.43;2.87;;;;;;;;;;5021846;28;20258;-75
2022/04/09 13:25:53;;;;;;;6.00;3.17;;;;;;;;;;5019422;28;20177;-75
2022/04/09 13:28:18;;;;;;;8.07;4.23;;;;;;;;;;5022783;28;20272;-74
2022/04/09 13:30:43;;;;;;;6.93;2.93;;;;;;;;;;5024386;28;20260;-75
2022/04/09 13:33:09;;;;;;;5.73;3.33;;;;;;;;;;5012711;28;20193;-75
2022/04/09 13:35:34;;;;;;;3.33;2.60;;;;;;;;;;5016314;28;20208;-75
2022/04/09 13:37:59;;;;;;;4.30;3.07;;;;;;;;;;5022672;28;20264;-75
2022/04/09 13:40:24;;;;;;;7.57;3.07;;;;;;;;;;5017934;28;20189;-75
2022/04/09 13:42:50;;;;;;;6.43;3.37;;;;;;;;;;5022523;28;20167;-75
2022/04/09 13:45:15;;;;;;;4.80;2.80;;;;;;;;;;5016977;28;20179;-74
2022/04/09 13:47:41;;;;;;;6.47;3.27;;;;;;;;;;5021240;28;20192;-75
2022/04/09 13:50:07;;;;;;;3.53;2.73;;;;;;;;;;5016363;28;20185;-75
2022/04/09 13:52:32;;;;;;;6.90;3.10;;;;;;;;;;5017851;28;20182;-75
2022/04/09 13:54:57;;;;;;;5.03;3.00;;;;;;;;;;5018655;28;20271;-75
2022/04/09 13:57:23;;;;;;;5.33;3.27;;;;;;;;;;5013470;28;20196;-75
2022/04/09 13:59:48;;;;;;;4.47;3.30;;;;;;;;;;5012884;28;20175;-75
2022/04/09 14:02:14;;;;;;;4.87;2.70;;;;;;;;;;5029839;28;20190;-75
2022/04/09 14:04:40;;;;;;;4.87;2.97;;;;;;;;;;5010110;28;20210;-75
2022/04/09 14:07:05;;;;;;;3.77;2.73;;;;;;;;;;5019496;28;20177;-75
2022/04/09 14:09:30;;;;;;;7.47;3.30;;;;;;;;;;5017722;28;20173;-75
2022/04/09 14:11:55;;;;;;;4.20;3.03;;;;;;;;;;5021697;28;20207;-75
2022/04/09 14:14:21;;;;;;;5.67;2.77;;;;;;;;;;5027449;28;20185;-75
2022/04/09 14:16:47;;;;;;;5.30;3.17;;;;;;;;;;5020999;28;20182;-75
2022/04/09 14:19:12;;;;;;;3.67;2.33;;;;;;;;;;5012984;28;20205;-75
2022/04/09 14:21:38;;;;;;;4.60;2.50;;;;;;;;;;5010819;28;20249;-75
2022/04/09 14:24:03;;;;;;;3.63;2.30;;;;;;;;;;5018944;28;20186;-75
2022/04/09 14:26:28;;;;;;;8.17;2.83;;;;;;;;;;5016186;28;20178;-75
2022/04/09 14:28:56;;;;;;;5.20;2.30;;;;;;;;;;5015762;28;21396;-75
2022/04/09 14:31:21;;;;;;;6.23;2.23;;;;;;;;;;5020876;28;20193;-75